Atlanta, Georgia
Traffic Map
Current Weather Conditions
Atlanta, Georgia
Overcast
Overcast
54°
Feels Like: 54°
Wind Chill: 54° Ceiling: 13000
Heat Index: 54° Visibility: 10mi
Dew Point: 30° Wind: 5mph
Humidity: 40% Direction: 280° (W)
Pressure: 30.06in Gusts: 0mph
Raw Report DataKATL 252352Z 28004KT 10SM BKN130 OVC200 12/M01 A3006 RMK AO2 SLP181 T01221011 10167 20122 53023
Traffic Incident Summary
Active as of:
Severity:
Category:
InformationThere was an issue retrieving the traffic information for this location. Please try a different location or try again shortly.
Advertisements
Track Severe Weather on mobile